createdAt,value
2019-05-16T00:02:18.718Z,47.34
2019-05-16T00:04:48.489Z,46.89
2019-05-16T00:07:19.213Z,46.92
2019-05-16T00:09:49.147Z,46.63
2019-05-16T00:12:18.963Z,46.48
2019-05-16T00:14:49.065Z,46.61
2019-05-16T00:17:18.983Z,46.26
2019-05-16T00:19:48.807Z,46.21
2019-05-16T00:22:18.493Z,46.29
2019-05-16T00:24:49.130Z,46.29
2019-05-16T00:27:18.792Z,46.18
2019-05-16T00:29:49.473Z,45.87
2019-05-16T00:32:19.259Z,45.62
2019-05-16T00:34:48.899Z,45.77
2019-05-16T00:37:22.929Z,45.67
2019-05-16T00:39:51.081Z,45.71
2019-05-16T00:42:20.832Z,45.69
2019-05-16T00:44:50.541Z,45.47
2019-05-16T00:47:20.330Z,45.30
2019-05-16T00:49:50.067Z,45.61
2019-05-16T00:52:21.042Z,45.41
2019-05-16T00:54:50.857Z,45.11
2019-05-16T00:57:21.590Z,45.20
2019-05-16T00:59:52.018Z,44.90
2019-05-16T01:02:21.694Z,45.09
2019-05-16T01:04:51.364Z,45.08
2019-05-16T01:07:21.051Z,45.25
2019-05-16T01:09:50.721Z,45.10
2019-05-16T01:12:21.384Z,44.65
2019-05-16T01:14:51.140Z,44.66
2019-05-16T01:17:20.816Z,44.85
2019-05-16T01:19:50.497Z,45.06
2019-05-16T01:22:20.174Z,44.86
2019-05-16T01:24:49.868Z,44.56
2019-05-16T01:27:19.533Z,44.61
2019-05-16T01:29:49.205Z,44.98
2019-05-16T01:32:19.199Z,44.73
2019-05-16T01:34:49.962Z,44.40
2019-05-16T01:37:19.688Z,44.43
2019-05-16T01:39:49.340Z,44.57
2019-05-16T01:42:19.020Z,44.39
2019-05-16T01:44:48.830Z,44.59
2019-05-16T01:47:18.474Z,44.66
2019-05-16T01:49:48.814Z,44.77
2019-05-16T01:52:18.754Z,44.62
2019-05-16T01:54:48.415Z,44.66
2019-05-16T01:57:18.269Z,44.81
2019-05-16T01:59:48.594Z,45.11
2019-05-16T02:02:18.514Z,44.76
2019-05-16T02:04:48.578Z,44.64
2019-05-16T02:07:18.942Z,44.87
2019-05-16T02:09:48.815Z,45.06
2019-05-16T02:12:18.673Z,44.78
2019-05-16T02:14:48.347Z,45.02
2019-05-16T02:17:18.479Z,45.01
2019-05-16T02:19:48.654Z,45.82
2019-05-16T02:22:18.375Z,46.43
2019-05-16T02:24:48.114Z,46.15
2019-05-16T02:27:18.329Z,45.87
2019-05-16T02:29:48.059Z,46.04
2019-05-16T02:32:17.729Z,46.12
2019-05-16T02:34:47.424Z,46.62
2019-05-16T02:37:29.283Z,47.06
2019-05-16T02:39:51.482Z,47.88
2019-05-16T02:42:21.253Z,47.78
2019-05-16T02:44:51.325Z,47.45
2019-05-16T02:47:21.368Z,47.16
2019-05-16T02:49:51.103Z,47.01
2019-05-16T02:52:21.810Z,47.46
2019-05-16T02:54:51.964Z,47.16
2019-05-16T02:57:21.856Z,48.17
2019-05-16T02:59:51.649Z,47.54
2019-05-16T03:02:21.518Z,48.13
2019-05-16T03:04:51.963Z,50.88
2019-05-16T03:07:37.790Z,49.97
2019-05-16T03:09:57.177Z,50.73
2019-05-16T03:12:30.795Z,50.86
2019-05-16T03:15:02.382Z,52.24
2019-05-16T03:17:35.742Z,52.31
2019-05-16T03:20:06.231Z,52.18
2019-05-16T03:22:36.821Z,54.34
2019-05-16T03:25:06.679Z,55.83
2019-05-16T03:27:36.335Z,56.08
2019-05-16T03:30:06.357Z,58.95
2019-05-16T03:32:36.057Z,59.86
2019-05-16T03:35:07.156Z,59.56
2019-05-16T03:37:51.408Z,61.45
2019-05-16T03:40:10.874Z,60.54
2019-05-16T03:43:01.025Z,63.14
2019-05-16T03:45:31.835Z,64.44
2019-05-16T03:48:02.830Z,62.68
2019-05-16T03:50:32.426Z,65.18
2019-05-16T03:53:02.140Z,65.54
2019-05-16T03:55:32.719Z,66.37
2019-05-16T03:58:02.885Z,66.51
2019-05-16T04:00:52.729Z,67.81
2019-05-16T04:03:23.088Z,68.62
2019-05-16T04:05:53.180Z,67.37
2019-05-16T04:08:25.259Z,66.60
2019-05-16T04:10:55.318Z,68.26
2019-05-16T04:13:24.953Z,68.01
2019-05-16T04:15:54.609Z,68.43
2019-05-16T04:18:24.279Z,67.33
2019-05-16T04:20:53.932Z,68.03
2019-05-16T04:23:23.618Z,68.47
2019-05-16T04:25:53.267Z,68.94
2019-05-16T04:28:23.582Z,68.46
2019-05-16T04:30:53.327Z,69.02
2019-05-16T04:33:23.004Z,68.93
2019-05-16T04:35:53.278Z,67.76
2019-05-16T04:38:34.928Z,67.99
2019-05-16T04:40:55.709Z,68.84
2019-05-16T04:43:25.402Z,68.54
2019-05-16T04:45:55.078Z,68.17
2019-05-16T04:48:24.762Z,68.96
2019-05-16T04:50:54.414Z,68.89
2019-05-16T04:53:24.072Z,68.70
2019-05-16T04:55:53.718Z,69.83
2019-05-16T04:58:24.586Z,69.40
2019-05-16T05:00:54.307Z,69.15
2019-05-16T05:03:23.973Z,70.76
2019-05-16T05:05:53.646Z,70.10
2019-05-16T05:08:23.310Z,70.83
2019-05-16T05:10:54.045Z,72.21
2019-05-16T05:13:23.759Z,71.83
2019-05-16T05:15:53.440Z,71.85
2019-05-16T05:18:23.076Z,72.05
2019-05-16T05:20:53.040Z,72.15
2019-05-16T05:23:22.867Z,72.14
2019-05-16T05:25:52.533Z,72.58
2019-05-16T05:28:22.170Z,72.94
2019-05-16T05:30:51.846Z,73.60
2019-05-16T05:33:21.538Z,73.92
2019-05-16T05:35:51.330Z,74.39
2019-05-16T05:38:21.826Z,74.52
2019-05-16T05:40:51.900Z,75.80
2019-05-16T05:43:22.566Z,75.08
2019-05-16T05:45:53.286Z,76.04
2019-05-16T05:48:22.928Z,75.84
2019-05-16T05:50:52.734Z,76.18
2019-05-16T05:53:22.398Z,76.66
2019-05-16T05:55:52.126Z,76.75
2019-05-16T05:58:21.802Z,77.50
2019-05-16T06:00:52.348Z,76.99
2019-05-16T06:03:23.209Z,76.85
2019-05-16T06:05:53.058Z,76.33
2019-05-16T06:08:22.790Z,76.06
2019-05-16T06:10:52.518Z,76.27
2019-05-16T06:13:22.170Z,76.75
2019-05-16T06:15:51.848Z,76.96
2019-05-16T06:18:21.501Z,76.64
2019-05-16T06:20:51.640Z,75.66
2019-05-16T06:23:21.419Z,75.87
2019-05-16T06:25:51.224Z,76.14
2019-05-16T06:28:21.277Z,75.90
2019-05-16T06:30:52.013Z,76.12
2019-05-16T06:33:21.925Z,76.25
2019-05-16T06:35:51.775Z,76.52
2019-05-16T06:38:21.550Z,76.43
2019-05-16T06:41:10.817Z,76.88
2019-05-16T06:43:40.657Z,76.45
2019-05-16T06:46:11.089Z,76.75
2019-05-16T06:48:40.906Z,76.87
2019-05-16T06:51:10.922Z,76.54
2019-05-16T06:53:40.676Z,77.06
2019-05-16T06:56:10.644Z,76.97
2019-05-16T06:58:47.628Z,76.52
2019-05-16T07:01:11.804Z,77.05
2019-05-16T07:03:41.496Z,76.38
2019-05-16T07:06:29.871Z,76.99
2019-05-16T07:08:42.695Z,76.82
2019-05-16T07:11:12.399Z,76.75
2019-05-16T07:13:42.070Z,76.11
2019-05-16T07:16:11.726Z,75.61
2019-05-16T07:18:42.353Z,75.89
2019-05-16T07:21:12.193Z,75.26
2019-05-16T07:23:41.860Z,75.57
2019-05-16T07:26:11.531Z,75.50
2019-05-16T07:28:41.204Z,73.80
2019-05-16T07:31:15.679Z,73.92
2019-05-16T07:33:42.426Z,75.45
2019-05-16T07:36:12.109Z,74.15
2019-05-16T07:38:41.756Z,74.71
2019-05-16T07:41:14.093Z,75.46
2019-05-16T07:43:43.065Z,76.29
2019-05-16T07:46:12.819Z,75.59
2019-05-16T07:48:42.493Z,75.92
2019-05-16T07:51:12.222Z,76.11
2019-05-16T07:53:56.575Z,75.95
2019-05-16T07:56:27.462Z,75.68
2019-05-16T07:58:57.125Z,75.22
2019-05-16T08:01:26.937Z,75.66
2019-05-16T08:03:56.669Z,74.45
2019-05-16T08:06:26.333Z,75.07
2019-05-16T08:08:55.981Z,73.74
2019-05-16T08:11:25.661Z,74.01
2019-05-16T08:13:55.333Z,73.34
2019-05-16T08:16:25.323Z,73.87
2019-05-16T08:18:55.976Z,73.22
2019-05-16T08:21:27.722Z,72.67
2019-05-16T08:23:57.102Z,71.96
2019-05-16T08:26:26.779Z,72.08
2019-05-16T08:28:56.511Z,72.32
2019-05-16T08:31:26.183Z,72.23
2019-05-16T08:33:55.888Z,70.93
2019-05-16T08:36:25.555Z,71.47
2019-05-16T08:38:55.274Z,71.87
2019-05-16T08:41:24.961Z,72.76
2019-05-16T08:43:54.638Z,72.19
2019-05-16T08:46:24.363Z,71.82
2019-05-16T08:48:54.381Z,71.62
2019-05-16T08:51:24.117Z,72.30
2019-05-16T08:53:53.780Z,72.78
2019-05-16T08:56:23.485Z,72.64
2019-05-16T08:58:54.191Z,72.07
2019-05-16T09:01:24.935Z,72.73
2019-05-16T09:03:54.589Z,71.43
2019-05-16T09:06:24.279Z,71.94
2019-05-16T09:08:58.193Z,71.89
2019-05-16T09:11:35.604Z,71.01
2019-05-16T09:13:57.375Z,70.72
2019-05-16T09:16:27.596Z,71.90
2019-05-16T09:18:57.960Z,72.61
2019-05-16T09:21:27.812Z,72.50
2019-05-16T09:23:57.943Z,72.31
2019-05-16T09:26:28.168Z,72.17
2019-05-16T09:28:57.862Z,72.95
2019-05-16T09:31:27.739Z,70.21
2019-05-16T09:33:57.670Z,70.81
2019-05-16T09:36:28.135Z,71.62
2019-05-16T09:38:58.956Z,70.99
2019-05-16T09:41:46.343Z,70.73
2019-05-16T09:43:59.997Z,69.10
2019-05-16T09:46:29.755Z,70.24
2019-05-16T09:49:15.851Z,70.62
2019-05-16T09:51:30.835Z,71.25
2019-05-16T09:54:00.670Z,71.54
2019-05-16T09:56:30.416Z,71.67
2019-05-16T09:59:00.101Z,72.92
2019-05-16T10:01:29.772Z,72.52
2019-05-16T10:03:59.603Z,73.68
2019-05-16T10:06:29.294Z,74.27
2019-05-16T10:08:59.036Z,74.66
2019-05-16T10:11:30.818Z,74.70
2019-05-16T10:14:00.072Z,74.67
2019-05-16T10:16:29.748Z,74.44
2019-05-16T10:18:59.479Z,75.36
2019-05-16T10:21:29.139Z,73.78
2019-05-16T10:23:58.819Z,73.56
2019-05-16T10:26:28.487Z,73.09
2019-05-16T10:28:58.250Z,73.88
2019-05-16T10:31:41.493Z,73.91
2019-05-16T10:33:59.450Z,73.17
2019-05-16T10:36:29.118Z,73.81
2019-05-16T10:38:59.341Z,74.68
2019-05-16T10:41:29.150Z,74.61
2019-05-16T10:43:59.846Z,74.00
2019-05-16T10:46:29.613Z,74.33
2019-05-16T10:48:59.271Z,74.78
2019-05-16T10:51:28.981Z,74.64
2019-05-16T10:54:08.841Z,75.04
2019-05-16T10:56:31.009Z,75.31
2019-05-16T10:59:37.772Z,76.13
2019-05-16T11:01:32.155Z,76.68
2019-05-16T11:04:01.881Z,75.16
2019-05-16T11:06:31.663Z,75.28
2019-05-16T11:09:02.448Z,75.51
2019-05-16T11:11:32.426Z,75.86
2019-05-16T11:14:02.181Z,76.17
2019-05-16T11:16:31.846Z,76.36
2019-05-16T11:19:14.435Z,75.57
2019-05-16T11:21:32.956Z,76.47
2019-05-16T11:24:02.641Z,75.39
2019-05-16T11:26:32.313Z,74.92
2019-05-16T11:29:02.070Z,74.03
2019-05-16T11:31:31.820Z,73.95
2019-05-16T11:34:01.509Z,74.67
2019-05-16T11:36:31.308Z,74.53
2019-05-16T11:39:02.056Z,74.51
2019-05-16T11:41:32.992Z,74.18
2019-05-16T11:44:02.693Z,73.66
2019-05-16T11:46:32.390Z,73.84
2019-05-16T11:49:47.759Z,73.79
2019-05-16T11:52:18.098Z,74.59
2019-05-16T11:54:47.985Z,73.42
2019-05-16T11:57:18.036Z,73.03
2019-05-16T11:59:48.928Z,74.16
2019-05-16T12:02:18.620Z,74.50
2019-05-16T12:04:48.323Z,74.20
2019-05-16T12:07:19.253Z,74.54
2019-05-16T12:09:55.202Z,75.35
2019-05-16T12:12:21.109Z,76.11
2019-05-16T12:14:51.117Z,76.20
2019-05-16T12:17:20.786Z,76.37
2019-05-16T12:19:52.925Z,76.94
2019-05-16T12:22:21.824Z,77.12
2019-05-16T12:24:51.488Z,76.64
2019-05-16T12:27:21.239Z,76.96
2019-05-16T12:29:55.245Z,76.93
2019-05-16T12:32:22.253Z,78.03
2019-05-16T12:34:51.942Z,77.50
2019-05-16T12:37:21.599Z,77.76
2019-05-16T12:39:51.362Z,77.33
2019-05-16T12:42:21.246Z,76.60
2019-05-16T12:44:50.944Z,76.63
2019-05-16T12:47:20.708Z,76.94
2019-05-16T12:49:50.365Z,75.56
2019-05-16T12:52:20.092Z,75.99
2019-05-16T12:54:50.834Z,76.91
2019-05-16T12:57:27.823Z,76.88
2019-05-16T12:59:52.647Z,77.25
2019-05-16T13:02:22.626Z,76.32
2019-05-16T13:04:52.320Z,76.88
2019-05-16T13:07:22.018Z,76.47
2019-05-16T13:09:51.716Z,76.27
2019-05-16T13:12:21.376Z,76.00
2019-05-16T13:14:51.047Z,75.98
2019-05-16T13:17:20.721Z,75.75
2019-05-16T13:19:50.384Z,76.33
2019-05-16T13:22:20.083Z,75.93
2019-05-16T13:24:49.846Z,75.00
2019-05-16T13:27:22.807Z,75.67
2019-05-16T13:29:51.028Z,75.50
2019-05-16T13:32:20.691Z,76.00
2019-05-16T13:34:50.377Z,75.06
2019-05-16T13:37:20.125Z,76.11
2019-05-16T13:39:49.799Z,76.37
2019-05-16T13:42:19.520Z,77.33
2019-05-16T13:44:49.199Z,76.17
2019-05-16T13:47:18.875Z,76.30
2019-05-16T13:49:48.629Z,76.56
2019-05-16T13:52:18.354Z,76.67
2019-05-16T13:54:48.093Z,76.88
2019-05-16T13:57:18.051Z,76.86
2019-05-16T13:59:47.730Z,76.62
2019-05-16T14:02:17.574Z,76.93
2019-05-16T14:04:48.469Z,76.99
2019-05-16T14:07:18.132Z,75.98
2019-05-16T14:09:47.875Z,76.43
2019-05-16T14:12:17.833Z,76.97
2019-05-16T14:14:47.978Z,76.71
2019-05-16T14:17:18.095Z,76.46
2019-05-16T14:19:48.225Z,75.87
2019-05-16T14:22:18.064Z,75.71
2019-05-16T14:24:48.334Z,76.69
2019-05-16T14:27:18.292Z,76.06
2019-05-16T14:29:48.155Z,75.20
2019-05-16T14:32:19.527Z,75.75
2019-05-16T14:34:51.502Z,75.98
2019-05-16T14:37:20.763Z,75.94
2019-05-16T14:39:50.482Z,75.62
2019-05-16T14:42:20.314Z,75.56
2019-05-16T14:45:09.233Z,76.50
2019-05-16T14:47:21.525Z,75.35
2019-05-16T14:49:51.208Z,75.49
2019-05-16T14:52:20.878Z,75.16
2019-05-16T14:54:50.571Z,75.26
2019-05-16T14:57:20.276Z,74.67
2019-05-16T14:59:49.935Z,75.48
2019-05-16T15:02:19.735Z,75.38
2019-05-16T15:04:49.812Z,75.30
2019-05-16T15:07:19.698Z,75.52
2019-05-16T15:09:49.312Z,75.98
2019-05-16T15:12:19.064Z,75.23
2019-05-16T15:14:48.858Z,75.26
2019-05-16T15:17:18.540Z,75.68
2019-05-16T15:19:48.204Z,75.62
2019-05-16T15:22:18.052Z,74.71
2019-05-16T15:24:47.775Z,74.90
2019-05-16T15:27:17.467Z,75.09
2019-05-16T15:29:48.166Z,73.98
2019-05-16T15:32:18.675Z,74.18
2019-05-16T15:34:48.417Z,74.20
2019-05-16T15:37:18.115Z,74.71
2019-05-16T15:39:47.856Z,74.87
2019-05-16T15:42:18.208Z,74.60
2019-05-16T15:44:48.026Z,74.66
2019-05-16T15:47:17.832Z,75.50
2019-05-16T15:49:47.850Z,75.30
2019-05-16T15:52:18.859Z,75.36
2019-05-16T15:54:49.714Z,75.00
2019-05-16T15:57:19.441Z,75.21
2019-05-16T15:59:49.181Z,76.17
2019-05-16T16:02:18.951Z,74.83
2019-05-16T16:04:48.776Z,74.55
2019-05-16T16:07:18.547Z,75.15
2019-05-16T16:09:48.419Z,74.96
2019-05-16T16:12:18.118Z,75.01
2019-05-16T16:14:47.949Z,75.41
2019-05-16T16:17:17.839Z,75.48
2019-05-16T16:19:47.699Z,75.91
2019-05-16T16:22:17.919Z,76.44
2019-05-16T16:24:48.056Z,75.73
2019-05-16T16:27:17.818Z,75.25
2019-05-16T16:29:48.172Z,75.09
2019-05-16T16:32:17.964Z,75.06
2019-05-16T16:34:48.950Z,75.83
2019-05-16T16:37:18.928Z,75.62
2019-05-16T16:39:48.605Z,76.01
2019-05-16T16:42:18.374Z,75.90
2019-05-16T16:44:48.072Z,75.92
2019-05-16T16:47:17.832Z,75.62
2019-05-16T16:52:59.600Z,76.07
2019-05-16T16:55:29.266Z,75.42
2019-05-16T16:57:59.698Z,75.28
2019-05-16T17:00:29.687Z,75.36
2019-05-16T17:03:06.194Z,76.65
2019-05-16T17:05:30.893Z,76.64
2019-05-16T17:08:00.591Z,76.95
2019-05-16T17:10:31.515Z,76.30
2019-05-16T17:13:01.197Z,76.52
2019-05-16T17:15:30.943Z,76.25
2019-05-16T17:18:00.626Z,76.42
2019-05-16T17:20:30.334Z,76.77
2019-05-16T17:23:00.078Z,77.12
2019-05-16T17:25:29.877Z,77.14
2019-05-16T17:27:59.753Z,77.56
2019-05-16T17:30:29.547Z,77.57
2019-05-16T17:32:59.326Z,76.65
2019-05-16T17:35:29.133Z,76.78
2019-05-16T17:37:58.918Z,76.95
2019-05-16T17:40:28.649Z,77.14
2019-05-16T17:42:58.375Z,77.37
2019-05-16T17:45:28.186Z,78.00
2019-05-16T17:47:57.868Z,78.05
2019-05-16T17:50:27.620Z,77.56
2019-05-16T17:52:57.870Z,77.95
2019-05-16T17:55:27.774Z,77.62
2019-05-16T17:57:57.605Z,77.69
2019-05-16T18:00:29.012Z,77.90
2019-05-16T18:02:59.152Z,77.97
2019-05-16T18:05:28.950Z,78.08
2019-05-16T18:07:58.771Z,77.81
2019-05-16T18:10:29.649Z,77.80
2019-05-16T18:12:59.348Z,77.70
2019-05-16T18:15:29.203Z,77.83
2019-05-16T18:18:26.899Z,78.10
2019-05-16T18:21:01.733Z,78.17
2019-05-16T18:23:28.193Z,77.89
2019-05-16T18:25:57.881Z,78.00
2019-05-16T18:28:27.644Z,77.83
2019-05-16T18:30:57.305Z,78.14
2019-05-16T18:33:27.730Z,78.11
2019-05-16T18:35:58.164Z,78.38
2019-05-16T18:38:28.146Z,78.87
2019-05-16T18:40:57.871Z,79.29
2019-05-16T18:43:27.772Z,79.19
2019-05-16T18:45:57.469Z,79.23
2019-05-16T18:48:27.538Z,79.41
2019-05-16T18:50:58.328Z,79.66
2019-05-16T18:53:28.412Z,80.13
2019-05-16T18:55:58.097Z,80.31
2019-05-16T18:58:27.968Z,80.58
2019-05-16T19:00:57.736Z,80.76
2019-05-16T19:03:27.817Z,81.23
2019-05-16T19:05:57.592Z,81.56
2019-05-16T19:08:27.388Z,81.55
2019-05-16T19:11:00.056Z,82.07
2019-05-16T19:13:28.528Z,81.99
2019-05-16T19:15:58.216Z,81.93
2019-05-16T19:18:27.908Z,81.81
2019-05-16T19:20:58.041Z,82.27
2019-05-16T19:23:27.727Z,81.91
2019-05-16T19:25:57.714Z,82.03
2019-05-16T19:28:28.694Z,82.14
2019-05-16T19:30:58.633Z,82.44
2019-05-16T19:33:28.308Z,82.55
2019-05-16T19:35:58.037Z,82.78
2019-05-16T19:38:29.318Z,83.07
2019-05-16T19:40:59.175Z,83.01
2019-05-16T19:43:28.968Z,82.97
2019-05-16T19:45:59.148Z,82.83
2019-05-16T19:48:28.895Z,83.25
2019-05-16T19:50:58.651Z,83.27
2019-05-16T19:53:28.375Z,82.84
2019-05-16T19:55:58.049Z,82.69
2019-05-16T19:58:30.939Z,82.71
2019-05-16T20:00:59.353Z,82.84
2019-05-16T20:03:29.167Z,82.66
2019-05-16T20:05:58.850Z,82.79
2019-05-16T20:08:28.545Z,82.52
2019-05-16T20:10:58.299Z,82.70
2019-05-16T20:13:28.153Z,82.65
2019-05-16T20:15:57.865Z,82.84
2019-05-16T20:18:27.640Z,83.09
2019-05-16T20:20:58.342Z,82.75
2019-05-16T20:23:28.025Z,83.20
2019-05-16T20:25:57.696Z,82.72
2019-05-16T20:28:27.468Z,83.30
2019-05-16T20:30:59.875Z,83.38
2019-05-16T20:33:29.684Z,83.17
2019-05-16T20:35:59.502Z,83.14
2019-05-16T20:38:29.270Z,83.39
2019-05-16T20:40:59.880Z,83.45
2019-05-16T20:43:29.846Z,83.43
2019-05-16T20:46:00.597Z,83.54
2019-05-16T20:48:30.556Z,83.44
2019-05-16T20:51:00.272Z,83.44
2019-05-16T20:53:29.910Z,83.16
2019-05-16T20:55:59.606Z,83.62
2019-05-16T20:58:29.354Z,83.65
2019-05-16T21:01:01.457Z,83.26
2019-05-16T21:03:30.605Z,83.32
2019-05-16T21:06:01.438Z,83.41
2019-05-16T21:08:31.108Z,83.24
2019-05-16T21:11:01.597Z,83.34
2019-05-16T21:13:31.396Z,83.59
2019-05-16T21:16:01.079Z,83.56
2019-05-16T21:18:30.771Z,83.47
2019-05-16T21:21:00.508Z,83.61
2019-05-16T21:23:30.293Z,83.46
2019-05-16T21:26:00.938Z,83.20
2019-05-16T21:28:30.689Z,83.33
2019-05-16T21:31:00.574Z,83.35
2019-05-16T21:33:30.249Z,83.40
2019-05-16T21:35:59.930Z,83.41
2019-05-16T21:38:29.691Z,83.62
2019-05-16T21:40:59.547Z,83.62
2019-05-16T21:43:29.242Z,83.06
2019-05-16T21:45:59.980Z,83.36
2019-05-16T21:48:29.723Z,83.59
2019-05-16T21:50:59.467Z,83.35
2019-05-16T21:53:30.096Z,83.44
2019-05-16T21:55:59.858Z,83.80
2019-05-16T21:58:29.634Z,83.83
2019-05-16T22:01:01.649Z,83.61
2019-05-16T22:03:32.932Z,83.75
2019-05-16T22:06:03.074Z,84.11
2019-05-16T22:08:32.893Z,83.61
2019-05-16T22:11:06.578Z,83.75
2019-05-16T22:13:37.402Z,83.44
2019-05-16T22:16:08.134Z,83.44
2019-05-16T22:18:38.525Z,83.31
2019-05-16T22:21:08.509Z,83.36
2019-05-16T22:23:38.220Z,83.33
2019-05-16T22:26:08.060Z,83.63
2019-05-16T22:28:38.815Z,83.42
2019-05-16T22:31:08.520Z,83.15
2019-05-16T22:33:38.218Z,83.27
2019-05-16T22:36:08.082Z,83.72
2019-05-16T22:38:38.957Z,83.53
2019-05-16T22:41:10.758Z,83.48
2019-05-16T22:43:40.270Z,83.41
2019-05-16T22:46:10.280Z,83.61
2019-05-16T22:48:40.925Z,83.85
2019-05-16T22:51:10.714Z,83.72
2019-05-16T22:53:40.463Z,83.96
2019-05-16T22:56:10.173Z,84.00
2019-05-16T22:58:39.880Z,83.92
2019-05-16T23:01:09.911Z,83.83
2019-05-16T23:03:39.680Z,84.16
2019-05-16T23:06:09.547Z,83.92
2019-05-16T23:08:39.229Z,83.85
2019-05-16T23:11:08.897Z,84.04
2019-05-16T23:13:38.565Z,84.31
2019-05-16T23:16:08.248Z,84.04
2019-05-16T23:18:37.954Z,84.06
2019-05-16T23:21:07.639Z,83.98
2019-05-16T23:23:37.450Z,84.05
2019-05-16T23:26:07.254Z,84.13
2019-05-16T23:28:37.010Z,84.16
2019-05-16T23:31:06.857Z,84.37
2019-05-16T23:33:36.747Z,84.35
2019-05-16T23:36:07.329Z,84.47
2019-05-16T23:38:49.330Z,84.55
2019-05-16T23:41:19.039Z,84.56
2019-05-16T23:43:48.718Z,84.82
2019-05-16T23:46:18.472Z,84.91
2019-05-16T23:48:48.132Z,85.09
2019-05-16T23:51:17.894Z,85.18
2019-05-16T23:53:47.552Z,85.42
2019-05-16T23:56:17.325Z,85.45
2019-05-16T23:58:47.702Z,85.53
